Portada
METAR-TAF:

METAR-TAF

Aeroports :

Nouakchott, Mauritània

latitud: 18-18-36N, longitud: 015-58-11W, altitud: 3 m

Observació

L'informe es va fer fa 28 minuts, a les 19:00 UTC
Vent 11 kt del Nord-Oest
Temperatura 24°C
Humitat 83%
Pressió 1012 hPa
Visibilitat: 8000 m

METAR: GQNO 151900Z 32011KT 8000 NSC 24/21 Q1012 NOSIG

Hora: 19:28 (19:28 UTC)

Pronòstic

L'informe es va fer fa 2 hores i 28 minuts, a les 17:00 UTC
Pronòstic vàlid del 15 a les 18 UTC al 16 a les 24 UTC
Vent 12 kt del Nord/Nord-Oest
Visibilitat: 7000 m
Probabilitat 40% :
Temporalment
l' 16 a les 02 UTC al 16 a les 08 UTC
Visibilitat: 3000 m
Cel ennuvolat a una alçada de 600 ft
boirina

TAF: GQNO 151700Z 1518/1624 34012KT 7000 NSC PROB40 TEMPO 1602/1608 3000 BR BKN006

Observacions i pronòstics meteorològics de més de 4000 aeroports (METAR i TAF).

Les estacions disponibles són els punts grocs i vermells al mapa.

Posi el ratolí al punt desitjat per veure el nom de l'estació.

Feu clic per veure les observacions i els pronòstics meteorològics.

Per canviar el mapa: feu clic els botons verds amb una creu de color negre per apropar; al botó verd amb un guió per allunyar la imatge; o en les fletxes verdes per a mapes adjacents.


METAR-TAF: